Florida/ Paulista, Brazil
Current Conditions -  °F | °C
As of 1:00 AM on Friday 19 Dec 2014 (Local Time) from SBDN Reporting Station
Clear Clear  
Wind Chill: 77°   Ceiling: Unl
Heat Index: 79°   Visibility: 6mi
Dew Point: 66°   Wind: 5mph
Humidity: 69%   Direction: 250°WSW
Pressure: 29.83"   Gusts: NA
Location:  21.61°S, 51.17°W
Report Text: SBDN 190300Z 25004KT CAVOK 25/19 Q1010
Loading
Personal Weather Stations






























Interactive Weather Map New forecast layout! Learn more

10-Day Weather Forecast

Advertisements
Track Severe Weather on mobile